createdAt,value
2019-02-24T00:00:22.568Z,14.60
2019-02-24T00:01:22.502Z,10.80
2019-02-24T00:02:22.547Z,10.40
2019-02-24T00:03:22.543Z,10.60
2019-02-24T00:04:22.329Z,11.80
2019-02-24T00:05:22.574Z,11.60
2019-02-24T00:06:22.632Z,12.50
2019-02-24T00:07:22.504Z,15.10
2019-02-24T00:08:22.423Z,12.00
2019-02-24T00:09:22.485Z,12.50
2019-02-24T00:10:22.472Z,12.20
2019-02-24T00:11:22.601Z,10.50
2019-02-24T00:12:22.326Z,11.70
2019-02-24T00:13:22.687Z,12.80
2019-02-24T00:14:22.573Z,11.80
2019-02-24T00:15:22.420Z,11.20
2019-02-24T00:16:22.406Z,12.40
2019-02-24T00:17:22.397Z,11.40
2019-02-24T00:18:22.474Z,11.40
2019-02-24T00:19:22.373Z,11.30
2019-02-24T00:20:22.362Z,11.40
2019-02-24T00:21:22.355Z,14.40
2019-02-24T00:22:22.347Z,11.60
2019-02-24T00:23:22.493Z,11.50
2019-02-24T00:24:22.412Z,10.50
2019-02-24T00:25:22.312Z,12.10
2019-02-24T00:26:22.302Z,11.40
2019-02-24T00:27:22.536Z,13.60
2019-02-24T00:28:22.137Z,11.20
2019-02-24T00:29:22.274Z,13.50
2019-02-24T00:30:22.262Z,12.00
2019-02-24T00:31:22.249Z,11.80
2019-02-24T00:32:21.987Z,11.90
2019-02-24T00:33:21.977Z,13.00
2019-02-24T00:34:21.963Z,11.10
2019-02-24T00:35:21.960Z,12.10
2019-02-24T00:36:21.949Z,11.10
2019-02-24T00:37:21.939Z,10.30
2019-02-24T00:38:21.931Z,12.10
2019-02-24T00:39:21.917Z,10.20
2019-02-24T00:40:21.904Z,10.90
2019-02-24T00:41:21.900Z,14.30
2019-02-24T00:42:21.888Z,11.80
2019-02-24T00:43:21.875Z,12.20
2019-02-24T00:44:21.862Z,11.70
2019-02-24T00:45:21.851Z,11.30
2019-02-24T00:46:21.840Z,11.10
2019-02-24T00:47:21.835Z,12.00
2019-02-24T00:48:21.824Z,11.00
2019-02-24T00:49:21.815Z,10.50
2019-02-24T00:50:21.806Z,10.20
2019-02-24T00:51:21.791Z,11.50
2019-02-24T00:52:21.780Z,11.30
2019-02-24T00:53:21.768Z,11.10
2019-02-24T00:54:21.756Z,10.70
2019-02-24T00:55:21.753Z,10.90
2019-02-24T00:56:21.739Z,11.80
2019-02-24T00:57:21.725Z,10.20
2019-02-24T00:58:21.725Z,10.60
2019-02-24T00:59:21.710Z,10.60
2019-02-24T01:00:21.702Z,11.50
2019-02-24T01:01:21.692Z,11.50
2019-02-24T01:02:21.680Z,12.50
2019-02-24T01:03:21.667Z,9.40
2019-02-24T01:04:21.657Z,10.90
2019-02-24T01:05:21.645Z,10.50
2019-02-24T01:06:21.634Z,11.50
2019-02-24T01:07:21.629Z,10.70
2019-02-24T01:08:21.616Z,11.40
2019-02-24T01:09:21.605Z,11.10
2019-02-24T01:10:21.595Z,11.70
2019-02-24T01:11:21.579Z,12.90
2019-02-24T01:12:21.569Z,10.30
2019-02-24T01:13:21.564Z,10.70
2019-02-24T01:14:21.555Z,9.80
2019-02-24T01:15:21.538Z,9.00
2019-02-24T01:16:21.526Z,10.80
2019-02-24T01:17:21.519Z,10.60
2019-02-24T01:18:21.510Z,11.30
2019-02-24T01:19:21.503Z,12.60
2019-02-24T01:20:21.492Z,10.50
2019-02-24T01:21:21.481Z,11.50
2019-02-24T01:22:21.471Z,9.60
2019-02-24T01:23:21.458Z,13.30
2019-02-24T01:24:21.444Z,11.00
2019-02-24T01:25:21.432Z,11.00
2019-02-24T01:26:21.424Z,13.30
2019-02-24T01:27:21.415Z,11.30
2019-02-24T01:28:25.351Z,11.20
2019-02-24T01:29:21.392Z,12.00
2019-02-24T01:30:21.380Z,10.50
2019-02-24T01:31:21.376Z,11.10
2019-02-24T01:32:21.362Z,10.60
2019-02-24T01:33:21.359Z,9.90
2019-02-24T01:34:21.345Z,10.30
2019-02-24T01:35:21.330Z,11.10
2019-02-24T01:36:21.319Z,11.10
2019-02-24T01:37:21.307Z,11.00
2019-02-24T01:38:21.299Z,9.80
2019-02-24T01:39:21.293Z,12.40
2019-02-24T01:40:21.282Z,10.30
2019-02-24T01:41:21.270Z,10.10
2019-02-24T01:42:21.258Z,11.20
2019-02-24T01:43:21.245Z,10.50
2019-02-24T01:44:21.231Z,12.20
2019-02-24T01:45:21.227Z,9.90
2019-02-24T01:46:21.217Z,10.90
2019-02-24T01:47:21.201Z,12.30
2019-02-24T01:48:21.248Z,9.30
2019-02-24T01:49:21.182Z,9.70
2019-02-24T01:50:21.171Z,11.00
2019-02-24T01:51:21.167Z,9.80
2019-02-24T01:52:21.155Z,10.70
2019-02-24T01:53:21.145Z,11.00
2019-02-24T01:54:21.137Z,10.10
2019-02-24T01:55:21.116Z,9.60
2019-02-24T01:56:21.105Z,10.20
2019-02-24T01:57:21.098Z,10.90
2019-02-24T01:58:21.088Z,10.40
2019-02-24T01:59:21.081Z,9.40
2019-02-24T02:00:21.070Z,9.80
2019-02-24T02:01:21.065Z,11.00
2019-02-24T02:02:21.046Z,10.20
2019-02-24T02:03:21.038Z,9.60
2019-02-24T02:04:21.029Z,12.50
2019-02-24T02:05:21.016Z,10.60
2019-02-24T02:06:21.008Z,10.60
2019-02-24T02:07:20.990Z,9.60
2019-02-24T02:08:20.979Z,9.70
2019-02-24T02:09:20.969Z,9.20
2019-02-24T02:10:20.958Z,9.00
2019-02-24T02:11:20.952Z,10.40
2019-02-24T02:12:20.940Z,11.70
2019-02-24T02:13:20.932Z,10.60
2019-02-24T02:14:20.925Z,8.20
2019-02-24T02:15:20.907Z,10.10
2019-02-24T02:16:20.897Z,8.90
2019-02-24T02:17:20.891Z,9.10
2019-02-24T02:18:20.880Z,9.40
2019-02-24T02:19:20.869Z,9.70
2019-02-24T02:20:20.852Z,9.30
2019-02-24T02:21:20.842Z,9.50
2019-02-24T02:22:20.831Z,8.40
2019-02-24T02:23:20.826Z,10.00
2019-02-24T02:24:20.814Z,9.40
2019-02-24T02:25:20.804Z,9.30
2019-02-24T02:26:20.793Z,8.70
2019-02-24T02:27:20.778Z,9.40
2019-02-24T02:28:20.765Z,11.00
2019-02-24T02:29:20.757Z,11.20
2019-02-24T02:30:20.749Z,11.30
2019-02-24T02:31:20.741Z,8.60
2019-02-24T02:32:20.731Z,10.10
2019-02-24T02:33:20.717Z,10.20
2019-02-24T02:34:20.709Z,9.20
2019-02-24T02:35:20.699Z,10.70
2019-02-24T02:36:20.686Z,9.30
2019-02-24T02:37:20.675Z,9.10
2019-02-24T02:38:20.664Z,10.20
2019-02-24T02:39:20.648Z,9.30
2019-02-24T02:40:20.639Z,9.30
2019-02-24T02:41:20.626Z,9.00
2019-02-24T02:42:20.618Z,8.70
2019-02-24T02:43:20.611Z,8.40
2019-02-24T02:44:20.603Z,10.30
2019-02-24T02:45:20.594Z,10.10
2019-02-24T02:46:20.580Z,8.30
2019-02-24T02:47:20.567Z,10.80
2019-02-24T02:48:20.555Z,9.90
2019-02-24T02:49:20.550Z,10.80
2019-02-24T02:50:20.539Z,9.10
2019-02-24T02:51:20.522Z,8.50
2019-02-24T02:52:20.512Z,9.10
2019-02-24T02:53:20.499Z,10.60
2019-02-24T02:54:20.492Z,8.50
2019-02-24T02:55:20.483Z,9.80
2019-02-24T02:56:20.472Z,7.80
2019-02-24T02:57:20.464Z,10.80
2019-02-24T02:58:20.454Z,8.70
2019-02-24T02:59:20.434Z,8.60
2019-02-24T03:00:20.426Z,8.80
2019-02-24T03:01:20.416Z,10.50
2019-02-24T03:02:24.381Z,10.80
2019-02-24T03:03:20.399Z,8.30
2019-02-24T03:04:20.387Z,9.40
2019-02-24T03:05:20.374Z,9.20
2019-02-24T03:06:20.364Z,9.50
2019-02-24T03:07:20.355Z,7.60
2019-02-24T03:08:20.345Z,8.90
2019-02-24T03:09:20.332Z,9.10
2019-02-24T03:10:20.320Z,8.80
2019-02-24T03:11:20.307Z,8.00
2019-02-24T03:12:20.294Z,8.40
2019-02-24T03:13:20.286Z,8.70
2019-02-24T03:14:20.273Z,8.80
2019-02-24T03:15:20.277Z,9.30
2019-02-24T03:16:20.257Z,10.70
2019-02-24T03:17:20.247Z,8.10
2019-02-24T03:18:20.239Z,8.00
2019-02-24T03:19:20.224Z,8.70
2019-02-24T03:20:20.212Z,9.40
2019-02-24T03:21:20.209Z,9.50
2019-02-24T03:22:20.195Z,9.20
2019-02-24T03:23:20.181Z,8.40
2019-02-24T03:24:20.169Z,8.70
2019-02-24T03:25:20.157Z,8.70
2019-02-24T03:26:20.146Z,9.50
2019-02-24T03:27:20.139Z,9.60
2019-02-24T03:28:20.129Z,9.90
2019-02-24T03:29:20.117Z,7.70
2019-02-24T03:30:20.109Z,8.70
2019-02-24T03:31:20.108Z,10.40
2019-02-24T03:32:20.137Z,8.30
2019-02-24T03:33:20.074Z,10.80
2019-02-24T03:34:20.063Z,8.00
2019-02-24T03:35:20.056Z,9.00
2019-02-24T03:36:20.045Z,10.70
2019-02-24T03:37:20.031Z,9.30
2019-02-24T03:38:20.037Z,8.00
2019-02-24T03:39:20.017Z,8.60
2019-02-24T03:40:20.001Z,8.20
2019-02-24T03:41:19.992Z,8.50
2019-02-24T03:42:19.980Z,10.30
2019-02-24T03:43:19.962Z,8.50
2019-02-24T03:44:19.957Z,8.50
2019-02-24T03:45:19.942Z,8.40
2019-02-24T03:46:19.931Z,10.70
2019-02-24T03:47:19.925Z,10.40
2019-02-24T03:48:19.914Z,10.00
2019-02-24T03:49:19.906Z,9.60
2019-02-24T03:50:19.895Z,8.30
2019-02-24T03:51:19.884Z,8.20
2019-02-24T03:52:19.867Z,8.20
2019-02-24T03:53:19.861Z,9.30
2019-02-24T03:54:19.857Z,9.20
2019-02-24T03:55:19.843Z,11.20
2019-02-24T03:56:19.826Z,8.30
2019-02-24T03:57:19.811Z,7.10
2019-02-24T03:58:19.800Z,10.30
2019-02-24T03:59:19.797Z,8.40
2019-02-24T04:00:19.785Z,7.80
2019-02-24T04:01:19.779Z,8.90
2019-02-24T04:02:19.767Z,8.40
2019-02-24T04:03:19.750Z,8.40
2019-02-24T04:04:19.741Z,7.10
2019-02-24T04:05:19.728Z,9.20
2019-02-24T04:06:19.714Z,10.70
2019-02-24T04:07:19.709Z,10.40
2019-02-24T04:08:19.697Z,9.30
2019-02-24T04:09:19.681Z,8.60
2019-02-24T04:10:19.672Z,8.10
2019-02-24T04:11:19.666Z,8.10
2019-02-24T04:12:19.656Z,7.60
2019-02-24T04:13:19.645Z,9.60
2019-02-24T04:14:19.635Z,9.70
2019-02-24T04:15:19.620Z,7.90
2019-02-24T04:16:19.607Z,7.80
2019-02-24T04:17:19.599Z,8.70
2019-02-24T04:18:19.591Z,10.00
2019-02-24T04:19:19.581Z,7.60
2019-02-24T04:20:19.569Z,9.20
2019-02-24T04:21:19.556Z,7.70
2019-02-24T04:22:19.556Z,10.00
2019-02-24T04:23:19.532Z,8.20
2019-02-24T04:24:19.518Z,9.90
2019-02-24T04:25:19.514Z,8.50
2019-02-24T04:26:19.503Z,8.80
2019-02-24T04:27:19.489Z,7.90
2019-02-24T04:28:19.475Z,8.30
2019-02-24T04:29:24.939Z,8.50
2019-02-24T04:30:19.458Z,9.50
2019-02-24T04:31:19.542Z,8.00
2019-02-24T04:32:19.444Z,10.10
2019-02-24T04:33:19.428Z,8.80
2019-02-24T04:34:19.416Z,7.40
2019-02-24T04:35:19.402Z,8.60
2019-02-24T04:36:19.390Z,9.00
2019-02-24T04:37:19.383Z,8.40
2019-02-24T04:38:19.367Z,8.50
2019-02-24T04:39:19.360Z,9.10
2019-02-24T04:40:19.348Z,8.50
2019-02-24T04:41:19.335Z,8.60
2019-02-24T04:42:19.330Z,8.70
2019-02-24T04:43:19.317Z,10.60
2019-02-24T04:44:19.305Z,7.50
2019-02-24T04:45:19.296Z,8.20
2019-02-24T04:46:19.287Z,9.70
2019-02-24T04:47:19.271Z,8.10
2019-02-24T04:48:19.259Z,7.70
2019-02-24T04:49:19.247Z,7.10
2019-02-24T04:50:19.254Z,8.40
2019-02-24T04:51:19.231Z,9.10
2019-02-24T04:52:19.221Z,13.60
2019-02-24T04:53:19.207Z,8.10
2019-02-24T04:54:19.196Z,8.00
2019-02-24T04:55:19.181Z,8.90
2019-02-24T04:56:19.172Z,7.60
2019-02-24T04:57:19.163Z,9.20
2019-02-24T04:58:19.153Z,9.30
2019-02-24T04:59:19.136Z,9.90
2019-02-24T05:00:19.157Z,9.10
2019-02-24T05:01:19.118Z,8.60
2019-02-24T05:02:19.107Z,8.70
2019-02-24T05:03:19.102Z,8.70
2019-02-24T05:04:19.088Z,8.90
2019-02-24T05:05:19.075Z,8.20
2019-02-24T05:06:19.065Z,8.20
2019-02-24T05:07:19.047Z,8.00
2019-02-24T05:08:19.039Z,7.70
2019-02-24T05:09:19.033Z,8.20
2019-02-24T05:10:19.021Z,8.70
2019-02-24T05:11:19.018Z,8.30
2019-02-24T05:12:19.002Z,8.10
2019-02-24T05:13:18.983Z,7.50
2019-02-24T05:14:18.972Z,9.30
2019-02-24T05:15:18.970Z,8.70
2019-02-24T05:16:18.956Z,9.00
2019-02-24T05:17:18.951Z,9.10
2019-02-24T05:18:18.931Z,10.60
2019-02-24T05:19:18.915Z,7.50
2019-02-24T05:20:18.906Z,8.40
2019-02-24T05:21:18.897Z,8.90
2019-02-24T05:22:18.883Z,8.70
2019-02-24T05:23:18.878Z,9.50
2019-02-24T05:24:18.866Z,10.70
2019-02-24T05:25:18.857Z,9.10
2019-02-24T05:26:18.845Z,9.90
2019-02-24T05:27:18.830Z,7.60
2019-02-24T05:28:18.818Z,9.20
2019-02-24T05:29:20.399Z,7.90
2019-02-24T05:30:18.805Z,7.80
2019-02-24T05:31:18.790Z,9.20
2019-02-24T05:32:18.776Z,8.70
2019-02-24T05:33:18.762Z,7.30
2019-02-24T05:34:18.751Z,7.20
2019-02-24T05:35:18.746Z,9.70
2019-02-24T05:36:18.735Z,9.90
2019-02-24T05:37:18.723Z,9.50
2019-02-24T05:38:18.712Z,9.10
2019-02-24T05:39:18.695Z,12.80
2019-02-24T05:40:18.683Z,8.60
2019-02-24T05:41:18.678Z,9.00
2019-02-24T05:42:18.665Z,8.40
2019-02-24T05:43:18.659Z,9.80
2019-02-24T05:44:18.647Z,9.10
2019-02-24T05:45:18.631Z,8.40
2019-02-24T05:46:18.621Z,7.90
2019-02-24T05:47:18.612Z,8.70
2019-02-24T05:48:18.601Z,7.80
2019-02-24T05:49:18.590Z,8.70
2019-02-24T05:50:18.578Z,8.60
2019-02-24T05:51:18.569Z,9.10
2019-02-24T05:52:18.550Z,9.10
2019-02-24T05:53:18.541Z,8.50
2019-02-24T05:54:18.527Z,8.10
2019-02-24T05:55:18.524Z,9.00
2019-02-24T05:56:18.513Z,8.40
2019-02-24T05:57:18.503Z,7.60
2019-02-24T05:58:18.492Z,8.20
2019-02-24T05:59:18.476Z,7.60
2019-02-24T06:00:18.464Z,8.20
2019-02-24T06:01:19.942Z,7.90
2019-02-24T06:02:18.445Z,9.20
2019-02-24T06:03:18.431Z,6.50
2019-02-24T06:04:18.428Z,9.10
2019-02-24T06:05:18.405Z,7.60
2019-02-24T06:06:18.408Z,9.70
2019-02-24T06:07:18.391Z,7.50
2019-02-24T06:08:18.376Z,7.70
2019-02-24T06:09:18.367Z,7.50
2019-02-24T06:10:18.394Z,7.90
2019-02-24T06:11:18.341Z,10.60
2019-02-24T06:12:18.328Z,7.10
2019-02-24T06:13:18.316Z,6.40
2019-02-24T06:14:18.303Z,7.60
2019-02-24T06:15:18.298Z,6.90
2019-02-24T06:16:18.286Z,6.90
2019-02-24T06:17:18.272Z,6.70
2019-02-24T06:18:18.259Z,8.30
2019-02-24T06:19:18.255Z,8.10
2019-02-24T06:20:18.241Z,8.50
2019-02-24T06:21:18.232Z,8.90
2019-02-24T06:22:18.225Z,6.80
2019-02-24T06:23:18.206Z,6.60
2019-02-24T06:24:18.196Z,9.30
2019-02-24T06:25:18.184Z,8.50
2019-02-24T06:26:18.173Z,6.70
2019-02-24T06:27:18.166Z,8.20
2019-02-24T06:28:18.154Z,7.10
2019-02-24T06:29:18.144Z,6.80
2019-02-24T06:30:18.129Z,7.40
2019-02-24T06:31:18.114Z,5.70
2019-02-24T06:32:18.101Z,6.80
2019-02-24T06:33:18.095Z,7.90
2019-02-24T06:34:18.087Z,7.60
2019-02-24T06:35:18.076Z,9.80
2019-02-24T06:36:18.061Z,8.60
2019-02-24T06:37:18.050Z,7.10
2019-02-24T06:38:18.038Z,8.70
2019-02-24T06:39:18.040Z,6.60
2019-02-24T06:40:18.045Z,7.30
2019-02-24T06:41:18.008Z,7.80
2019-02-24T06:42:17.998Z,5.50
2019-02-24T06:43:17.983Z,7.50
2019-02-24T06:44:17.972Z,7.50
2019-02-24T06:45:17.958Z,8.30
2019-02-24T06:46:17.948Z,7.10
2019-02-24T06:47:17.986Z,5.30
2019-02-24T06:48:17.934Z,7.60
2019-02-24T06:49:17.914Z,7.20
2019-02-24T06:50:17.903Z,7.80
2019-02-24T06:51:17.897Z,7.00
2019-02-24T06:52:17.884Z,6.80
2019-02-24T06:53:17.876Z,7.10
2019-02-24T06:54:17.866Z,8.80
2019-02-24T06:55:17.850Z,7.00
2019-02-24T06:56:17.839Z,6.50
2019-02-24T06:57:17.831Z,5.40
2019-02-24T06:58:18.468Z,6.70
2019-02-24T06:59:17.813Z,6.70
2019-02-24T07:00:17.803Z,6.90
2019-02-24T07:01:17.789Z,6.30
2019-02-24T07:02:17.779Z,7.80
2019-02-24T07:03:17.766Z,6.20
2019-02-24T07:04:17.755Z,7.70
2019-02-24T07:05:17.752Z,6.30
2019-02-24T07:06:17.767Z,6.80
2019-02-24T07:07:17.727Z,6.50
2019-02-24T07:08:17.719Z,7.00
2019-02-24T07:09:19.073Z,5.00
2019-02-24T07:10:17.705Z,6.90
2019-02-24T07:11:17.701Z,6.30
2019-02-24T07:12:17.693Z,6.40
2019-02-24T07:13:17.683Z,5.90
2019-02-24T07:14:17.673Z,5.60
2019-02-24T07:15:17.664Z,6.10
2019-02-24T07:16:17.653Z,7.40
2019-02-24T07:17:17.648Z,5.90
2019-02-24T07:18:17.641Z,8.40
2019-02-24T07:19:17.636Z,5.50
2019-02-24T07:20:17.629Z,7.00
2019-02-24T07:21:17.617Z,7.00
2019-02-24T07:22:17.607Z,6.70
2019-02-24T07:23:17.608Z,6.20
2019-02-24T07:24:17.599Z,6.50
2019-02-24T07:25:17.586Z,6.30
2019-02-24T07:26:17.581Z,5.80
2019-02-24T07:27:17.568Z,6.50
2019-02-24T07:28:17.572Z,6.50
2019-02-24T07:29:17.554Z,5.70
2019-02-24T07:30:23.413Z,6.10
2019-02-24T07:31:17.548Z,6.00
2019-02-24T07:32:17.541Z,5.60
2019-02-24T07:33:17.540Z,6.20
2019-02-24T07:34:17.533Z,5.20
2019-02-24T07:35:17.526Z,5.70
2019-02-24T07:36:17.522Z,5.70
2019-02-24T07:37:17.517Z,5.20
2019-02-24T07:38:17.513Z,5.70
2019-02-24T07:39:17.503Z,5.50
2019-02-24T07:40:17.505Z,5.90
2019-02-24T07:41:17.493Z,5.80
2019-02-24T07:42:17.487Z,5.40
2019-02-24T07:43:17.489Z,6.60
2019-02-24T07:44:17.485Z,5.40
2019-02-24T07:45:17.483Z,5.20
2019-02-24T07:46:17.480Z,5.40
2019-02-24T07:47:17.472Z,7.10
2019-02-24T07:48:17.468Z,5.60
2019-02-24T07:49:17.467Z,6.40
2019-02-24T07:50:17.465Z,5.60
2019-02-24T07:51:17.466Z,7.10
2019-02-24T07:52:17.463Z,5.50
2019-02-24T07:53:17.458Z,5.60
2019-02-24T07:54:17.456Z,6.20
2019-02-24T07:55:17.457Z,6.10
2019-02-24T07:56:17.458Z,5.80
2019-02-24T07:57:17.452Z,5.20
2019-02-24T07:58:17.448Z,6.80
2019-02-24T07:59:17.445Z,7.00
2019-02-24T08:00:17.442Z,5.90
2019-02-24T08:01:17.441Z,5.20
2019-02-24T08:02:17.441Z,5.20
2019-02-24T08:03:17.444Z,5.00
2019-02-24T08:04:17.443Z,4.60
2019-02-24T08:05:17.443Z,4.80
2019-02-24T08:06:17.447Z,5.20
2019-02-24T08:07:17.438Z,5.40
2019-02-24T08:08:17.445Z,5.70
2019-02-24T08:09:17.444Z,5.40
2019-02-24T08:10:17.441Z,4.60
2019-02-24T08:11:17.440Z,6.30
2019-02-24T08:12:17.437Z,5.60
2019-02-24T08:13:17.435Z,5.20
2019-02-24T08:14:17.439Z,4.70
2019-02-24T08:15:17.444Z,5.30
2019-02-24T08:16:17.441Z,5.00
2019-02-24T08:17:17.445Z,5.70
2019-02-24T08:18:17.445Z,4.80
2019-02-24T08:19:17.447Z,6.30
2019-02-24T08:20:17.441Z,4.70
2019-02-24T08:21:17.439Z,4.90
2019-02-24T08:22:17.442Z,4.10
2019-02-24T08:23:17.450Z,6.40
2019-02-24T08:24:17.447Z,5.50
2019-02-24T08:25:17.442Z,4.30
2019-02-24T08:26:17.444Z,5.30
2019-02-24T08:27:17.451Z,5.40
2019-02-24T08:28:17.449Z,4.60
2019-02-24T08:29:17.455Z,4.80
2019-02-24T08:30:17.457Z,4.60
2019-02-24T08:31:17.455Z,5.60
2019-02-24T08:32:17.453Z,4.70
2019-02-24T08:33:17.457Z,4.40
2019-02-24T08:34:17.457Z,4.60
2019-02-24T08:35:17.462Z,5.30
2019-02-24T08:36:17.466Z,4.40
2019-02-24T08:37:17.464Z,4.70
2019-02-24T08:38:17.465Z,4.70
2019-02-24T08:39:17.466Z,4.40
2019-02-24T08:40:17.466Z,6.10
2019-02-24T08:41:17.474Z,4.40
2019-02-24T08:42:17.476Z,5.00
2019-02-24T08:43:17.477Z,4.50
2019-02-24T08:44:17.477Z,5.50
2019-02-24T08:45:17.483Z,4.70
2019-02-24T08:46:17.487Z,5.40
2019-02-24T08:47:17.495Z,4.70
2019-02-24T08:48:19.154Z,4.30
2019-02-24T08:49:17.502Z,5.30
2019-02-24T08:50:17.506Z,5.60
2019-02-24T08:51:17.508Z,4.90
2019-02-24T08:52:17.511Z,4.60
2019-02-24T08:53:17.511Z,4.60
2019-02-24T08:54:17.517Z,5.10
2019-02-24T08:55:17.526Z,4.20
2019-02-24T08:56:17.543Z,4.80
2019-02-24T08:57:17.528Z,5.20
2019-02-24T08:58:17.534Z,4.90
2019-02-24T08:59:17.542Z,5.20
2019-02-24T09:00:17.548Z,5.40
2019-02-24T09:01:17.552Z,5.40
2019-02-24T09:02:17.555Z,5.60
2019-02-24T09:03:17.557Z,4.60
2019-02-24T09:04:17.561Z,5.30
2019-02-24T09:05:17.565Z,7.50
2019-02-24T09:06:17.571Z,5.90
2019-02-24T09:07:17.579Z,6.50
2019-02-24T09:08:17.582Z,5.40
2019-02-24T09:09:17.585Z,4.60
2019-02-24T09:10:17.591Z,4.80
2019-02-24T09:11:17.591Z,5.70
2019-02-24T09:12:17.596Z,5.10
2019-02-24T09:13:17.607Z,4.40
2019-02-24T09:14:17.610Z,5.10
2019-02-24T09:15:17.614Z,4.50
2019-02-24T09:16:17.621Z,4.40
2019-02-24T09:17:17.624Z,4.70
2019-02-24T09:18:17.630Z,4.30
2019-02-24T09:19:17.638Z,4.70
2019-02-24T09:20:17.658Z,4.90
2019-02-24T09:21:17.648Z,4.70
2019-02-24T09:22:17.654Z,5.40
2019-02-24T09:23:17.652Z,5.00
2019-02-24T09:24:17.669Z,4.20
2019-02-24T09:25:17.665Z,5.10
2019-02-24T09:26:17.682Z,4.30
2019-02-24T09:27:17.682Z,4.20
2019-02-24T09:28:17.687Z,4.20
2019-02-24T09:29:17.731Z,4.70
2019-02-24T09:30:17.695Z,4.40
2019-02-24T09:31:17.705Z,4.20
2019-02-24T09:32:17.711Z,4.40
2019-02-24T09:33:17.715Z,5.10
2019-02-24T09:34:17.719Z,4.70
2019-02-24T09:35:17.724Z,4.60
2019-02-24T09:36:17.727Z,4.70
2019-02-24T09:37:17.735Z,4.30
2019-02-24T09:38:17.740Z,5.10
2019-02-24T09:39:17.754Z,5.90
2019-02-24T09:40:17.759Z,4.60
2019-02-24T09:41:17.767Z,4.60
2019-02-24T09:42:17.774Z,4.30
2019-02-24T09:43:17.777Z,4.80
2019-02-24T09:44:17.785Z,4.40
2019-02-24T09:45:17.800Z,3.80
2019-02-24T09:46:17.799Z,5.00
2019-02-24T09:47:17.802Z,4.20
2019-02-24T09:48:17.809Z,3.90
2019-02-24T09:49:17.810Z,4.40
2019-02-24T09:50:17.847Z,4.20
2019-02-24T09:51:17.828Z,4.40
2019-02-24T09:52:17.835Z,5.80
2019-02-24T09:53:17.842Z,4.30
2019-02-24T09:54:17.851Z,3.50
2019-02-24T09:55:17.850Z,4.20
2019-02-24T09:56:17.858Z,5.70
2019-02-24T09:57:17.864Z,4.00
2019-02-24T09:58:17.871Z,4.30
2019-02-24T09:59:17.886Z,4.50
2019-02-24T10:00:17.888Z,4.10
2019-02-24T10:01:17.890Z,3.90
2019-02-24T10:02:17.896Z,3.60
2019-02-24T10:03:17.909Z,5.20
2019-02-24T10:04:17.912Z,3.70
2019-02-24T10:05:17.966Z,4.90
2019-02-24T10:06:17.927Z,3.80
2019-02-24T10:07:17.930Z,4.40
2019-02-24T10:08:17.931Z,4.50
2019-02-24T10:09:17.938Z,4.80
2019-02-24T10:10:17.948Z,3.60
2019-02-24T10:11:17.956Z,4.00
2019-02-24T10:12:17.964Z,4.20
2019-02-24T10:13:17.971Z,5.10
2019-02-24T10:14:17.977Z,3.80
2019-02-24T10:15:17.982Z,3.90
2019-02-24T10:16:17.988Z,5.40
2019-02-24T10:17:18.000Z,4.10
2019-02-24T10:18:18.009Z,5.00
2019-02-24T10:19:18.008Z,3.80
2019-02-24T10:20:18.018Z,4.20
2019-02-24T10:21:18.020Z,5.70
2019-02-24T10:22:18.030Z,5.70
2019-02-24T10:23:18.039Z,4.00
2019-02-24T10:24:18.044Z,4.80
2019-02-24T10:25:18.054Z,3.90
2019-02-24T10:26:18.061Z,4.00
2019-02-24T10:27:18.064Z,4.10
2019-02-24T10:28:18.071Z,3.80
2019-02-24T10:29:18.079Z,4.60
2019-02-24T10:30:18.083Z,4.40
2019-02-24T10:31:20.076Z,3.80
2019-02-24T10:32:18.102Z,3.70
2019-02-24T10:33:18.107Z,5.00
2019-02-24T10:34:18.115Z,5.00
2019-02-24T10:35:18.127Z,3.80
2019-02-24T10:36:18.134Z,4.10
2019-02-24T10:37:18.144Z,4.40
2019-02-24T10:38:18.152Z,3.50
2019-02-24T10:39:18.155Z,4.70
2019-02-24T10:40:18.167Z,3.50
2019-02-24T10:41:18.169Z,4.50
2019-02-24T10:42:18.177Z,4.20
2019-02-24T10:43:18.191Z,3.50
2019-02-24T10:44:18.196Z,3.90
2019-02-24T10:45:18.203Z,4.10
2019-02-24T10:46:18.223Z,4.70
2019-02-24T10:47:18.213Z,5.10
2019-02-24T10:48:18.222Z,5.50
2019-02-24T10:49:18.235Z,4.10
2019-02-24T10:50:18.242Z,5.20
2019-02-24T10:51:18.247Z,4.50
2019-02-24T10:52:18.253Z,4.30
2019-02-24T10:53:18.265Z,4.40
2019-02-24T10:54:18.274Z,5.60
2019-02-24T10:55:18.286Z,4.20
2019-02-24T10:56:18.295Z,4.70
2019-02-24T10:57:18.302Z,3.90
2019-02-24T10:58:18.310Z,4.00
2019-02-24T10:59:18.320Z,3.80
2019-02-24T11:00:18.323Z,3.70
2019-02-24T11:01:18.327Z,3.60
2019-02-24T11:02:18.338Z,3.70
2019-02-24T11:03:18.350Z,3.90
2019-02-24T11:04:18.360Z,4.00
2019-02-24T11:05:18.366Z,4.70
2019-02-24T11:06:18.371Z,3.70
2019-02-24T11:07:18.388Z,3.50
2019-02-24T11:08:18.393Z,3.80
2019-02-24T11:09:18.404Z,4.30
2019-02-24T11:10:18.414Z,4.90
2019-02-24T11:11:18.416Z,4.50
2019-02-24T11:12:18.427Z,4.10
2019-02-24T11:13:18.432Z,6.90
2019-02-24T11:14:18.444Z,4.60
2019-02-24T11:15:18.455Z,5.30
2019-02-24T11:16:18.466Z,5.40
2019-02-24T11:17:18.469Z,3.50
2019-02-24T11:18:18.477Z,4.60
2019-02-24T11:19:18.481Z,4.60
2019-02-24T11:20:18.528Z,4.00
2019-02-24T11:21:18.501Z,4.50
2019-02-24T11:22:18.510Z,5.00
2019-02-24T11:23:18.518Z,3.40
2019-02-24T11:24:18.520Z,4.10
2019-02-24T11:25:18.531Z,3.80
2019-02-24T11:26:18.540Z,4.20
2019-02-24T11:27:18.560Z,3.70
2019-02-24T11:28:18.558Z,3.50
2019-02-24T11:29:18.567Z,4.00
2019-02-24T11:30:18.575Z,3.70
2019-02-24T11:31:18.579Z,4.20
2019-02-24T11:32:18.586Z,3.20
2019-02-24T11:33:18.593Z,3.40
2019-02-24T11:34:18.600Z,5.10
2019-02-24T11:35:18.619Z,3.90
2019-02-24T11:36:18.618Z,4.60
2019-02-24T11:37:18.622Z,4.50
2019-02-24T11:38:18.629Z,6.30
2019-02-24T11:39:18.640Z,4.60
2019-02-24T11:40:18.648Z,3.20
2019-02-24T11:41:18.667Z,3.80
2019-02-24T11:42:18.675Z,4.00
2019-02-24T11:43:18.665Z,3.40
2019-02-24T11:44:18.669Z,3.40
2019-02-24T11:45:18.678Z,3.00
2019-02-24T11:46:18.684Z,5.00
2019-02-24T11:47:18.693Z,3.80
2019-02-24T11:48:18.702Z,3.10
2019-02-24T11:49:18.699Z,5.20
2019-02-24T11:50:18.707Z,3.50
2019-02-24T11:51:18.703Z,3.30
2019-02-24T11:52:18.708Z,3.70
2019-02-24T11:53:18.715Z,3.50
2019-02-24T11:54:18.717Z,5.00
2019-02-24T11:55:18.716Z,4.00
2019-02-24T11:56:19.731Z,3.70
2019-02-24T11:57:18.723Z,5.40
2019-02-24T11:58:18.726Z,2.90
2019-02-24T11:59:18.731Z,4.60
2019-02-24T12:00:18.741Z,4.00
2019-02-24T12:01:18.735Z,4.50
2019-02-24T12:02:18.736Z,2.90
2019-02-24T12:03:18.734Z,3.20
2019-02-24T12:04:18.736Z,3.30
2019-02-24T12:05:18.730Z,3.30
2019-02-24T12:06:18.731Z,3.30
2019-02-24T12:07:18.736Z,3.70
2019-02-24T12:08:18.735Z,3.40
2019-02-24T12:09:18.732Z,3.90
2019-02-24T12:10:18.731Z,2.40
2019-02-24T12:11:18.734Z,3.20
2019-02-24T12:12:18.732Z,3.30
2019-02-24T12:13:18.735Z,4.10
2019-02-24T12:14:18.735Z,2.60
2019-02-24T12:15:18.729Z,3.40
2019-02-24T12:16:18.727Z,4.50
2019-02-24T12:17:18.725Z,3.90
2019-02-24T12:18:18.725Z,3.10
2019-02-24T12:19:18.731Z,3.40
2019-02-24T12:20:18.736Z,4.20
2019-02-24T12:21:18.723Z,3.30
2019-02-24T12:22:18.722Z,3.30
2019-02-24T12:23:18.717Z,2.60
2019-02-24T12:24:18.711Z,3.70
2019-02-24T12:25:18.715Z,3.80
2019-02-24T12:26:18.714Z,3.10
2019-02-24T12:27:18.706Z,3.10
2019-02-24T12:28:18.706Z,3.50
2019-02-24T12:29:18.706Z,4.30
2019-02-24T12:30:18.703Z,4.00
2019-02-24T12:31:18.706Z,3.70
2019-02-24T12:32:18.702Z,3.10
2019-02-24T12:33:18.698Z,3.10
2019-02-24T12:34:18.697Z,3.80
2019-02-24T12:35:18.688Z,5.20
2019-02-24T12:36:18.686Z,4.40
2019-02-24T12:37:18.687Z,3.40
2019-02-24T12:38:18.685Z,2.90
2019-02-24T12:39:18.687Z,3.40
2019-02-24T12:40:18.682Z,3.70
2019-02-24T12:41:18.678Z,4.10
2019-02-24T12:42:18.674Z,2.40
2019-02-24T12:43:18.675Z,3.00
2019-02-24T12:44:18.675Z,4.80
2019-02-24T12:45:18.667Z,4.20
2019-02-24T12:46:18.664Z,3.30
2019-02-24T12:47:18.659Z,3.90
2019-02-24T12:48:18.655Z,2.60
2019-02-24T12:49:18.654Z,3.20
2019-02-24T12:50:18.649Z,3.50
2019-02-24T12:51:18.652Z,3.70
2019-02-24T12:52:20.649Z,4.30
2019-02-24T12:53:18.650Z,2.80
2019-02-24T12:54:18.647Z,2.80
2019-02-24T12:55:18.639Z,2.50
2019-02-24T12:56:18.637Z,3.60
2019-02-24T12:57:18.637Z,3.50
2019-02-24T12:58:18.636Z,3.80
2019-02-24T12:59:18.629Z,2.90
2019-02-24T13:00:18.629Z,4.30
2019-02-24T13:01:18.619Z,2.90
2019-02-24T13:02:18.616Z,3.90
2019-02-24T13:03:24.024Z,4.00
2019-02-24T13:04:18.616Z,2.90
2019-02-24T13:05:18.612Z,3.30
2019-02-24T13:06:18.609Z,2.60
2019-02-24T13:07:18.601Z,5.00
2019-02-24T13:08:18.598Z,3.90
2019-02-24T13:09:19.656Z,3.20
2019-02-24T13:10:18.597Z,4.40
2019-02-24T13:11:18.599Z,3.10
2019-02-24T13:12:18.593Z,4.20
2019-02-24T13:13:18.586Z,3.10